Time;durP1;ratioP1;P1;durP2;ratioP2;P2;SDS_P1;SDS_P2;PMS_P1;PMS_P2;Temp;Humidity;BMP_temperature;BMP_pressure;BME280_temperature;BME280_humidity;BME280_pressure;Samples;Min_cycle;Max_cycle;Signal;HPM_P1;HPM_P2
2021/01/29 00:02:05;;;;;;;3.47;3.17;;;19.60;44.60;;;;;;5063665;28;20029;-66
2021/01/29 00:04:30;;;;;;;4.47;3.25;;;19.60;44.60;;;;;;5063714;28;20033;-66
2021/01/29 00:06:56;;;;;;;4.40;3.90;;;19.60;44.60;;;;;;5062800;28;20095;-65
2021/01/29 00:09:21;;;;;;;4.43;3.63;;;19.60;44.60;;;;;;5062559;28;20048;-66
2021/01/29 00:11:47;;;;;;;6.07;3.00;;;19.50;44.60;;;;;;5062702;28;20025;-66
2021/01/29 00:14:13;;;;;;;5.13;3.03;;;19.50;44.60;;;;;;5063191;28;20040;-66
2021/01/29 00:16:38;;;;;;;3.55;2.97;;;19.60;44.70;;;;;;5062763;28;20033;-66
2021/01/29 00:19:04;;;;;;;7.28;3.33;;;19.60;44.70;;;;;;5063425;28;20685;-66
2021/01/29 00:21:29;;;;;;;5.30;2.92;;;19.60;44.60;;;;;;5063331;28;20090;-66
2021/01/29 00:23:55;;;;;;;4.60;3.47;;;19.50;44.60;;;;;;5064016;28;20045;-66
2021/01/29 00:26:20;;;;;;;3.92;2.92;;;19.50;44.60;;;;;;5049244;28;20139;-66
2021/01/29 00:28:46;;;;;;;4.93;3.25;;;19.50;44.60;;;;;;5067263;28;20502;-66
2021/01/29 00:31:11;;;;;;;4.05;2.88;;;19.50;44.60;;;;;;5066761;28;20050;-65
2021/01/29 00:33:37;;;;;;;5.90;2.80;;;19.50;44.60;;;;;;5067245;28;20047;-65
2021/01/29 00:36:03;;;;;;;2.95;2.63;;;19.50;44.60;;;;;;5067141;28;20032;-66
2021/01/29 00:38:29;;;;;;;3.95;2.70;;;19.50;44.60;;;;;;5066930;28;20036;-63
2021/01/29 00:40:55;;;;;;;3.28;2.60;;;19.50;44.70;;;;;;5066967;28;20161;-66
2021/01/29 00:43:20;;;;;;;3.38;2.63;;;19.50;44.60;;;;;;5066599;28;20028;-66
2021/01/29 00:45:46;;;;;;;2.97;2.35;;;19.50;44.60;;;;;;5067019;28;20036;-66
2021/01/29 00:48:11;;;;;;;3.50;2.38;;;19.40;44.60;;;;;;5066926;28;20114;-66
2021/01/29 00:50:37;;;;;;;4.03;3.47;;;19.50;44.70;;;;;;5067017;28;20574;-66
2021/01/29 00:53:03;;;;;;;2.75;2.42;;;19.40;44.60;;;;;;5065873;28;20445;-66
2021/01/29 00:55:29;;;;;;;2.33;2.05;;;19.50;44.60;;;;;;5067062;28;20037;-66
2021/01/29 00:57:54;;;;;;;2.65;2.40;;;19.50;44.70;;;;;;5066259;28;20090;-67
2021/01/29 01:00:20;;;;;;;2.28;2.00;;;19.40;44.50;;;;;;5066941;28;20074;-65
2021/01/29 01:02:46;;;;;;;3.22;2.70;;;19.40;44.60;;;;;;5066464;28;20067;-67
2021/01/29 01:05:13;;;;;;;3.42;2.72;;;19.40;44.50;;;;;;5048273;28;20028;-66
2021/01/29 01:07:38;;;;;;;3.22;2.40;;;19.40;44.60;;;;;;5048235;28;20493;-65
2021/01/29 01:10:05;;;;;;;2.33;2.05;;;19.40;44.60;;;;;;5066457;28;20040;-66
2021/01/29 01:12:30;;;;;;;2.70;2.30;;;19.40;44.60;;;;;;5066426;28;20025;-66
2021/01/29 01:14:56;;;;;;;2.30;2.10;;;19.40;44.50;;;;;;5066077;28;20114;-66
2021/01/29 01:17:21;;;;;;;2.58;2.33;;;19.40;44.60;;;;;;5065798;28;20036;-66
2021/01/29 01:19:47;;;;;;;2.42;1.85;;;19.40;44.50;;;;;;5066357;28;20028;-66
2021/01/29 01:22:12;;;;;;;4.05;2.08;;;19.40;44.50;;;;;;5065499;28;20029;-66
2021/01/29 01:24:40;;;;;;;4.93;2.20;;;19.40;44.50;;;;;;5048517;28;20497;-65
2021/01/29 01:27:13;;;;;;;3.20;2.00;;;19.40;44.50;;;;;;5063133;28;20499;-64
2021/01/29 01:29:38;;;;;;;2.35;2.10;;;19.40;44.60;;;;;;5066453;28;20059;-64
2021/01/29 01:32:04;;;;;;;1.95;1.75;;;19.40;44.50;;;;;;5065547;28;20031;-66
2021/01/29 01:34:30;;;;;;;3.72;2.08;;;19.40;44.50;;;;;;5065503;28;20497;-66
2021/01/29 01:36:56;;;;;;;2.00;1.70;;;19.40;44.50;;;;;;5046528;28;20433;-66
2021/01/29 01:39:21;;;;;;;2.30;2.10;;;19.40;44.50;;;;;;5065872;28;20094;-65
2021/01/29 01:41:47;;;;;;;2.05;1.85;;;19.40;44.50;;;;;;5057857;28;20035;-67
2021/01/29 01:44:23;;;;;;;2.20;2.00;;;19.40;44.50;;;;;;5067095;28;20403;-66
2021/01/29 01:46:50;;;;;;;1.70;1.60;;;19.40;44.60;;;;;;5065747;28;20103;-65
2021/01/29 01:49:16;;;;;;;2.65;1.92;;;19.40;44.50;;;;;;5065592;28;20499;-66
2021/01/29 01:52:04;;;;;;;2.50;1.92;;;19.40;45.20;;;;;;5031026;28;20078;-65
2021/01/29 01:54:48;;;;;;;2.28;2.00;;;19.40;44.50;;;;;;5047203;28;20029;-66
2021/01/29 01:57:14;;;;;;;3.15;1.80;;;19.30;44.40;;;;;;5046428;28;21997;-65
2021/01/29 01:59:42;;;;;;;1.70;1.60;;;19.40;44.50;;;;;;5044667;28;20482;-65
2021/01/29 02:02:08;;;;;;;2.65;1.75;;;19.40;44.50;;;;;;5047646;28;20112;-66
2021/01/29 02:04:34;;;;;;;2.60;2.00;;;19.30;44.40;;;;;;5047455;28;20562;-65
2021/01/29 02:07:18;;;;;;;1.70;1.60;;;19.30;44.40;;;;;;5022533;28;20506;-66
2021/01/29 02:09:45;;;;;;;1.65;1.55;;;19.30;44.50;;;;;;5046995;28;20047;-66
2021/01/29 02:12:11;;;;;;;1.95;1.73;;;19.30;44.50;;;;;;5030733;28;20203;-65
2021/01/29 02:14:36;;;;;;;2.30;1.80;;;19.30;44.50;;;;;;5047069;28;20045;-65
2021/01/29 02:17:26;;;;;;;2.75;2.00;;;19.30;44.50;;;;;;5047013;28;20445;-66
2021/01/29 02:20:22;;;;;;;3.30;1.90;;;19.30;44.50;;;;;;5045637;28;20418;-66
2021/01/29 02:23:07;;;;;;;;;;;19.20;44.60;;;;;;5065036;28;20036;-66
2021/01/29 02:25:54;;;;;;;1.65;1.52;;;19.20;44.50;;;;;;5065157;28;19920;-65
2021/01/29 02:28:49;;;;;;;2.80;2.00;;;19.20;44.60;;;;;;5050249;28;20629;-66
2021/01/29 02:31:52;;;;;;;2.25;1.85;;;19.20;44.60;;;;;;5043403;28;20033;-66
2021/01/29 02:34:25;;;;;;;2.22;1.38;;;19.10;44.60;;;;;;5058629;28;20033;-67
2021/01/29 02:37:18;;;;;;;1.52;1.23;;;19.10;44.60;;;;;;5046430;28;20063;-66
2021/01/29 02:39:51;;;;;;;2.42;1.70;;;19.10;44.70;;;;;;5049369;28;20040;-67
2021/01/29 02:42:54;;;;;;;1.92;1.45;;;19.00;44.70;;;;;;5046946;28;20032;-66
2021/01/29 02:46:08;;;;;;;2.05;1.50;;;19.10;44.70;;;;;;5058709;28;20133;-66
2021/01/29 02:49:05;;;;;;;1.92;1.65;;;19.10;44.60;;;;;;4977472;28;20102;-66
2021/01/29 02:51:39;;;;;;;1.60;1.50;;;19.10;44.60;;;;;;5046080;28;20111;-66
2021/01/29 02:54:08;;;;;;;2.08;1.52;;;19.10;44.60;;;;;;5046553;28;20109;-65
2021/01/29 02:56:58;;;;;;;2.00;1.63;;;19.10;44.60;;;;;;5046691;28;20032;-66
2021/01/29 02:59:26;;;;;;;1.65;1.38;;;19.10;44.60;;;;;;5039445;28;21694;-66
2021/01/29 03:01:57;;;;;;;1.80;1.40;;;19.10;44.60;;;;;;5064221;28;20036;-65
2021/01/29 03:04:26;;;;;;;1.30;1.20;;;19.10;44.50;;;;;;5029459;28;20093;-66
2021/01/29 03:06:54;;;;;;;2.90;1.70;;;19.10;44.50;;;;;;5029749;28;20056;-66
2021/01/29 03:09:28;;;;;;;2.13;1.92;;;19.20;44.60;;;;;;5047027;28;20037;-65
2021/01/29 03:12:02;;;;;;;1.83;1.65;;;19.20;44.50;;;;;;5027572;28;21190;-65
2021/01/29 03:14:55;;;;;;;1.70;1.60;;;19.20;44.50;;;;;;5030071;28;20028;-66
2021/01/29 03:17:30;;;;;;;2.45;1.52;;;19.20;44.40;;;;;;5011903;28;20064;-67
2021/01/29 03:20:08;;;;;;;1.60;1.50;;;19.20;44.40;;;;;;5047036;28;20107;-65
2021/01/29 03:22:41;;;;;;;1.92;1.50;;;19.30;44.40;;;;;;5063227;28;20286;-66
2021/01/29 03:25:23;;;;;;;1.75;1.60;;;19.30;44.30;;;;;;5045805;28;20032;-66
2021/01/29 03:27:52;;;;;;;1.80;1.35;;;19.30;44.20;;;;;;5043449;28;20698;-65
2021/01/29 03:30:23;;;;;;;1.52;1.30;;;19.30;44.20;;;;;;5045827;28;20104;-65
2021/01/29 03:32:50;;;;;;;1.75;1.33;;;19.40;44.20;;;;;;5046420;28;20499;-66
2021/01/29 03:35:23;;;;;;;1.70;1.35;;;19.40;44.20;;;;;;5045640;28;20056;-66
2021/01/29 03:38:04;;;;;;;2.20;1.50;;;19.40;44.10;;;;;;5039300;28;20562;-64
2021/01/29 03:40:29;;;;;;;1.85;1.55;;;19.40;44.00;;;;;;5047312;28;20090;-65
2021/01/29 03:43:10;;;;;;;1.73;1.42;;;19.40;44.00;;;;;;5046245;28;20036;-66
2021/01/29 03:45:38;;;;;;;1.60;1.27;;;19.40;44.00;;;;;;5063464;28;20461;-65
2021/01/29 03:48:11;;;;;;;1.42;1.10;;;19.50;44.00;;;;;;5045109;28;20071;-66
2021/01/29 03:50:58;;;;;;;1.60;1.50;;;19.50;44.10;;;;;;5046066;28;20043;-63
2021/01/29 03:53:30;;;;;;;2.10;1.58;;;19.40;44.00;;;;;;5039742;28;20116;-66
2021/01/29 03:56:17;;;;;;;1.95;1.48;;;19.50;44.00;;;;;;5063290;28;20078;-65
2021/01/29 03:58:52;;;;;;;1.95;1.60;;;19.50;44.00;;;;;;5057549;28;20029;-66
2021/01/29 04:01:22;;;;;;;1.27;1.17;;;19.40;43.90;;;;;;5049672;28;20032;-65
2021/01/29 04:04:03;;;;;;;1.45;1.35;;;19.40;43.90;;;;;;5049577;28;20032;-66
2021/01/29 04:06:31;;;;;;;1.60;1.30;;;19.40;43.90;;;;;;5044607;28;20202;-66
2021/01/29 04:09:16;;;;;;;1.85;1.40;;;19.40;43.90;;;;;;5050224;28;20038;-66
2021/01/29 04:11:58;;;;;;;1.60;1.50;;;19.50;43.90;;;;;;5037932;28;20124;-66
2021/01/29 04:14:40;;;;;;;1.70;1.60;;;19.40;43.80;;;;;;5031934;28;23249;-65
2021/01/29 04:17:11;;;;;;;1.75;1.40;;;19.40;43.80;;;;;;5032801;28;20450;-66
2021/01/29 04:19:37;;;;;;;2.92;1.50;;;19.40;43.90;;;;;;5049459;28;20039;-65
2021/01/29 04:22:08;;;;;;;2.38;1.63;;;19.40;43.80;;;;;;5033532;28;20024;-65
2021/01/29 04:24:35;;;;;;;2.53;2.33;;;19.40;43.80;;;;;;5029973;28;20553;-66
2021/01/29 04:27:15;;;;;;;1.48;1.38;;;19.40;43.80;;;;;;5026159;28;20733;-66
2021/01/29 04:29:43;;;;;;;1.63;1.50;;;19.30;43.80;;;;;;5039921;28;20029;-66
2021/01/29 04:32:12;;;;;;;2.42;1.70;;;19.30;43.80;;;;;;5029681;28;20032;-66
2021/01/29 04:34:40;;;;;;;2.05;1.65;;;19.40;43.80;;;;;;5020076;28;20683;-66
2021/01/29 04:37:10;;;;;;;2.72;1.60;;;19.30;43.80;;;;;;5041084;28;20072;-67
2021/01/29 04:39:43;;;;;;;1.88;1.73;;;19.30;43.70;;;;;;5032946;28;20455;-66
2021/01/29 04:43:03;;;;;;;2.55;1.48;;;19.30;43.80;;;;;;5049025;28;20163;-66
2021/01/29 04:46:00;;;;;;;1.63;1.45;;;19.30;43.80;;;;;;4995070;28;20097;-67
2021/01/29 04:48:36;;;;;;;1.70;1.50;;;19.30;43.80;;;;;;4979522;28;21395;-66
2021/01/29 04:51:19;;;;;;;2.97;1.23;;;19.30;43.80;;;;;;5036419;28;20103;-66
2021/01/29 04:54:10;;;;;;;1.85;1.35;;;19.30;43.90;;;;;;5048015;28;20044;-65
2021/01/29 04:56:48;;;;;;;1.70;1.52;;;19.30;43.90;;;;;;5028648;28;20032;-67
2021/01/29 04:59:49;;;;;;;1.63;1.20;;;19.20;43.90;;;;;;5047993;28;20048;-65
2021/01/29 05:02:21;;;;;;;1.30;1.20;;;19.30;43.90;;;;;;5048296;28;20029;-68
2021/01/29 05:05:16;;;;;;;1.33;1.23;;;19.20;43.90;;;;;;5048603;28;20040;-68
2021/01/29 05:07:55;;;;;;;1.30;1.20;;;19.20;44.50;;;;;;5050251;28;20044;-68
2021/01/29 05:10:51;;;;;;;1.58;1.02;;;19.20;44.00;;;;;;5066225;28;20041;-65
2021/01/29 05:13:29;;;;;;;;;;;19.20;44.00;;;;;;5060284;28;20024;-68
2021/01/29 05:16:22;;;;;;;2.88;1.55;;;19.20;44.00;;;;;;5065119;28;19912;-67
2021/01/29 05:19:06;;;;;;;3.70;1.35;;;19.20;44.00;;;;;;5066019;28;20044;-67
2021/01/29 05:21:50;;;;;;;3.80;1.30;;;19.20;44.00;;;;;;5060587;28;20111;-67
2021/01/29 05:24:32;;;;;;;3.15;1.40;;;19.20;44.00;;;;;;5048014;28;20036;-66
2021/01/29 05:27:28;;;;;;;3.75;1.15;;;19.10;44.00;;;;;;5031213;28;20363;-67
2021/01/29 05:30:11;;;;;;;2.90;1.00;;;19.10;44.00;;;;;;5049505;28;20043;-69
2021/01/29 05:32:58;;;;;;;2.78;1.30;;;19.10;44.00;;;;;;5065967;28;20511;-65
2021/01/29 05:35:38;;;;;;;4.65;1.48;;;19.10;44.10;;;;;;5041219;28;20048;-68
2021/01/29 05:38:26;;;;;;;4.03;1.17;;;19.10;44.20;;;;;;5047353;28;20044;-66
2021/01/29 05:41:16;;;;;;;4.05;1.52;;;19.10;44.10;;;;;;5048039;28;20072;-68
2021/01/29 05:44:01;;;;;;;3.70;1.55;;;19.10;44.10;;;;;;5065280;28;20048;-67
2021/01/29 05:46:40;;;;;;;3.08;1.25;;;19.10;44.10;;;;;;5047514;28;20052;-67
2021/01/29 05:49:22;;;;;;;5.75;2.00;;;19.00;44.10;;;;;;5040391;28;20457;-65
2021/01/29 05:51:59;;;;;;;1.83;1.13;;;19.00;44.10;;;;;;5047796;28;20047;-66
2021/01/29 05:54:48;;;;;;;9.38;1.90;;;19.00;44.10;;;;;;5065241;28;20064;-67
2021/01/29 05:57:53;;;;;;;3.90;2.90;;;19.00;44.20;;;;;;5045052;28;20402;-66
2021/01/29 06:00:40;;;;;;;10.15;3.47;;;19.00;44.70;;;;;;5034019;28;20033;-66
2021/01/29 06:03:37;;;;;;;9.63;3.97;;;19.00;44.60;;;;;;5058310;28;20028;-68
2021/01/29 06:06:13;;;;;;;12.63;4.13;;;19.00;44.70;;;;;;5042639;28;20039;-66
2021/01/29 06:09:16;;;;;;;11.93;3.72;;;19.00;44.80;;;;;;5025699;28;20407;-65
2021/01/29 06:12:02;;;;;;;7.65;4.00;;;19.00;44.80;;;;;;5031897;28;20033;-65
2021/01/29 06:14:59;;;;;;;8.38;4.57;;;19.00;44.70;;;;;;5064567;28;20032;-67
2021/01/29 06:17:42;;;;;;;;;;;19.00;44.80;;;;;;5067160;28;20516;-67
2021/01/29 06:20:31;;;;;;;11.18;4.57;;;19.00;44.80;;;;;;5066606;28;19909;-65
2021/01/29 06:23:18;;;;;;;17.00;5.63;;;19.00;44.80;;;;;;5033059;28;20055;-66
2021/01/29 06:26:18;;;;;;;16.13;6.00;;;19.00;44.90;;;;;;5047920;28;20049;-67
2021/01/29 06:29:03;;;;;;;13.20;5.45;;;19.00;44.90;;;;;;5032583;28;20023;-67
2021/01/29 06:32:13;;;;;;;14.60;5.18;;;18.90;44.80;;;;;;5067963;28;20025;-65
2021/01/29 06:34:45;;;;;;;11.35;5.20;;;18.90;44.90;;;;;;5067327;28;20024;-66
2021/01/29 06:37:29;;;;;;;9.88;4.07;;;18.90;44.80;;;;;;5048327;28;20023;-67
2021/01/29 06:40:35;;;;;;;13.18;5.57;;;18.90;44.80;;;;;;5067239;28;20021;-66
2021/01/29 06:43:38;;;;;;;16.90;4.72;;;18.90;44.80;;;;;;4992520;28;20046;-65
2021/01/29 06:46:16;;;;;;;16.98;4.85;;;18.80;44.80;;;;;;5047322;28;20428;-67
2021/01/29 06:48:56;;;;;;;8.82;4.60;;;18.80;44.80;;;;;;5029608;28;20060;-66
2021/01/29 06:51:43;;;;;;;12.10;4.97;;;18.80;44.80;;;;;;5029724;28;20496;-67
2021/01/29 06:54:27;;;;;;;11.65;5.10;;;18.80;44.80;;;;;;5047302;28;20029;-65
2021/01/29 06:57:02;;;;;;;11.35;4.97;;;18.80;44.80;;;;;;5046722;28;20052;-66
2021/01/29 06:59:30;;;;;;;10.70;5.18;;;18.80;44.70;;;;;;5029877;28;20067;-66
2021/01/29 07:02:26;;;;;;;11.35;5.22;;;18.80;44.60;;;;;;5047822;28;20103;-66
2021/01/29 07:05:15;;;;;;;10.88;6.22;;;18.80;44.60;;;;;;5031948;28;20017;-65
2021/01/29 07:07:55;;;;;;;9.82;5.60;;;18.80;44.50;;;;;;5031677;28;20025;-66
2021/01/29 07:10:51;;;;;;;9.50;4.95;;;18.80;44.50;;;;;;5028892;28;20032;-66
2021/01/29 07:13:35;;;;;;;7.75;4.47;;;18.80;44.50;;;;;;5046837;28;20035;-67
2021/01/29 07:16:14;;;;;;;9.25;4.97;;;18.80;44.50;;;;;;5028765;28;20040;-66
2021/01/29 07:18:57;;;;;;;8.95;4.82;;;18.80;44.50;;;;;;5046804;28;20035;-65
2021/01/29 07:22:00;;;;;;;6.65;4.28;;;18.80;44.50;;;;;;5029174;28;20108;-66
2021/01/29 07:24:37;;;;;;;8.75;4.38;;;18.90;44.50;;;;;;5045490;28;20017;-65
2021/01/29 07:27:28;;;;;;;10.77;4.35;;;18.90;44.50;;;;;;5012119;28;20032;-66
2021/01/29 07:30:26;;;;;;;7.72;4.50;;;18.90;44.50;;;;;;5029083;28;20025;-66
2021/01/29 07:33:08;;;;;;;7.30;3.65;;;18.90;44.50;;;;;;5024754;28;20075;-65
2021/01/29 07:35:50;;;;;;;8.48;4.05;;;18.90;44.50;;;;;;5029594;28;20025;-66
2021/01/29 07:38:52;;;;;;;7.78;4.10;;;18.90;44.50;;;;;;5028876;28;20487;-65
2021/01/29 07:41:28;;;;;;;5.63;3.65;;;18.90;44.40;;;;;;5046536;28;20021;-66
2021/01/29 07:44:44;;;;;;;4.65;3.53;;;18.90;44.40;;;;;;5046619;28;20502;-66
2021/01/29 07:47:23;;;;;;;9.38;3.83;;;19.00;44.40;;;;;;5012133;28;20112;-66
2021/01/29 07:50:08;;;;;;;5.88;3.47;;;19.00;44.40;;;;;;5029828;28;20017;-67
2021/01/29 07:52:44;;;;;;;7.30;3.83;;;19.00;44.40;;;;;;5031614;28;20021;-66
2021/01/29 07:55:20;;;;;;;5.35;3.10;;;19.00;44.40;;;;;;5044943;28;20029;-66
2021/01/29 07:58:11;;;;;;;5.65;3.05;;;19.00;45.00;;;;;;5045905;28;20642;-67
2021/01/29 08:00:54;;;;;;;7.10;2.92;;;19.00;44.30;;;;;;5041963;28;20515;-66
2021/01/29 08:03:47;;;;;;;4.18;2.95;;;19.10;44.40;;;;;;5046979;28;20013;-66
2021/01/29 08:06:22;;;;;;;5.57;3.05;;;19.10;44.30;;;;;;5046539;28;20100;-66
2021/01/29 08:09:02;;;;;;;7.10;3.40;;;19.10;44.20;;;;;;5046804;28;20035;-66
2021/01/29 08:11:29;;;;;;;5.00;2.95;;;19.20;44.30;;;;;;5046529;28;20028;-66
2021/01/29 08:14:06;;;;;;;4.80;3.10;;;19.20;44.20;;;;;;5047064;28;20033;-67
2021/01/29 08:16:47;;;;;;;4.93;3.03;;;19.20;44.10;;;;;;5047631;28;20109;-63
2021/01/29 08:19:13;;;;;;;4.22;2.22;;;19.20;44.10;;;;;;5065958;28;20017;-66
2021/01/29 08:21:47;;;;;;;3.20;2.40;;;19.30;44.00;;;;;;5047786;28;20534;-65
2021/01/29 08:24:31;;;;;;;2.90;2.17;;;19.30;44.00;;;;;;5031183;28;20029;-65
2021/01/29 08:27:23;;;;;;;4.78;2.40;;;19.40;43.90;;;;;;5066119;28;20035;-66
2021/01/29 08:30:15;;;;;;;4.03;2.33;;;19.30;43.80;;;;;;5045786;28;20055;-64
2021/01/29 08:33:18;;;;;;;3.78;2.50;;;19.40;43.80;;;;;;5047923;28;20111;-64
2021/01/29 08:36:14;;;;;;;3.78;2.22;;;19.40;43.80;;;;;;5057073;28;20506;-67
2021/01/29 08:38:54;;;;;;;2.85;2.05;;;19.50;43.70;;;;;;5047762;28;20025;-65
2021/01/29 08:41:25;;;;;;;2.83;2.03;;;19.50;43.70;;;;;;5065568;28;20795;-66
2021/01/29 08:44:11;;;;;;;4.65;2.38;;;19.50;43.60;;;;;;5031457;28;20056;-66
2021/01/29 08:47:02;;;;;;;2.60;1.70;;;19.60;43.70;;;;;;5051532;28;20449;-65
2021/01/29 08:49:39;;;;;;;4.45;2.08;;;19.60;43.60;;;;;;5051532;28;20481;-66
2021/01/29 08:52:24;;;;;;;2.58;2.08;;;19.60;43.50;;;;;;5051480;28;20029;-64
2021/01/29 08:54:58;;;;;;;2.30;1.88;;;19.60;43.50;;;;;;5069198;28;20024;-66
2021/01/29 08:57:48;;;;;;;3.40;2.28;;;19.70;43.50;;;;;;5068876;28;20402;-65
2021/01/29 09:00:25;;;;;;;4.15;2.28;;;19.70;43.40;;;;;;5069127;28;20119;-65
2021/01/29 09:03:07;;;;;;;4.57;2.42;;;19.70;43.30;;;;;;5052215;28;20028;-65
2021/01/29 09:05:32;;;;;;;4.07;2.83;;;19.70;43.30;;;;;;5052829;28;20031;-65
2021/01/29 09:07:59;;;;;;;2.40;1.88;;;19.70;43.30;;;;;;5050561;28;20032;-66
2021/01/29 09:11:02;;;;;;;3.33;2.25;;;19.70;43.30;;;;;;5051235;28;20151;-62
2021/01/29 09:13:27;;;;;;;3.97;2.17;;;19.70;43.40;;;;;;5069102;28;20024;-66
2021/01/29 09:16:00;;;;;;;2.67;2.00;;;19.70;43.30;;;;;;5050732;28;20093;-64
2021/01/29 09:18:38;;;;;;;2.85;2.03;;;19.70;43.40;;;;;;5069083;28;20016;-65
2021/01/29 09:21:15;;;;;;;3.05;2.35;;;19.70;43.40;;;;;;5050779;28;20594;-65
2021/01/29 09:24:05;;;;;;;2.40;1.95;;;19.70;43.40;;;;;;5052552;28;20108;-65
2021/01/29 09:27:05;;;;;;;2.78;2.10;;;19.70;43.50;;;;;;5068513;28;20013;-64
2021/01/29 09:29:37;;;;;;;3.17;2.15;;;19.70;43.50;;;;;;5050715;28;20028;-63
2021/01/29 09:32:06;;;;;;;2.05;1.60;;;19.70;43.50;;;;;;5050863;28;20029;-65
2021/01/29 09:34:43;;;;;;;2.63;2.00;;;19.60;43.40;;;;;;5051033;28;20073;-65
2021/01/29 09:37:19;;;;;;;2.65;2.00;;;19.60;43.50;;;;;;5050436;28;20166;-63
2021/01/29 09:40:00;;;;;;;3.05;2.28;;;19.60;43.60;;;;;;5051220;28;20060;-65
2021/01/29 09:42:32;;;;;;;2.03;1.63;;;19.60;43.60;;;;;;5050908;28;20028;-65
2021/01/29 09:45:02;;;;;;;2.45;1.95;;;19.60;43.60;;;;;;5068313;28;20057;-63
2021/01/29 09:47:28;;;;;;;3.40;2.13;;;19.50;43.60;;;;;;5050483;28;20028;-65
2021/01/29 09:50:03;;;;;;;2.10;1.70;;;19.50;43.70;;;;;;5050004;28;20013;-65
2021/01/29 09:52:36;;;;;;;2.70;1.70;;;19.50;43.70;;;;;;5050143;28;20032;-64
2021/01/29 09:55:30;;;;;;;2.45;1.98;;;19.50;43.70;;;;;;5050154;28;20047;-65
2021/01/29 09:58:11;;;;;;;3.30;2.38;;;19.50;43.70;;;;;;5050183;28;20020;-65
2021/01/29 10:00:37;;;;;;;2.83;1.95;;;19.50;43.80;;;;;;5050365;28;20100;-66
2021/01/29 10:03:24;;;;;;;3.63;2.03;;;19.50;43.80;;;;;;5050068;28;20591;-65
2021/01/29 10:05:54;;;;;;;3.40;2.15;;;19.50;43.80;;;;;;5067556;28;20082;-66
2021/01/29 10:08:21;;;;;;;3.08;2.13;;;19.40;43.70;;;;;;5050089;28;20032;-65
2021/01/29 10:10:56;;;;;;;2.80;2.30;;;19.40;43.80;;;;;;5067731;28;20107;-65
2021/01/29 10:13:35;;;;;;;4.97;2.17;;;19.40;43.80;;;;;;5050175;28;20032;-66
2021/01/29 10:16:12;;;;;;;3.00;2.35;;;19.40;43.80;;;;;;5049362;28;20036;-64
2021/01/29 10:18:37;;;;;;;4.25;2.00;;;19.40;43.80;;;;;;5050437;28;20060;-65
2021/01/29 10:21:14;;;;;;;2.85;2.00;;;19.40;43.80;;;;;;5049664;28;20101;-65
2021/01/29 10:23:51;;;;;;;4.10;2.10;;;19.40;43.90;;;;;;5050113;28;20098;-65
2021/01/29 10:26:32;;;;;;;2.65;2.17;;;19.40;43.90;;;;;;5049469;28;20694;-65
2021/01/29 10:29:04;;;;;;;4.05;2.28;;;19.30;43.90;;;;;;5049837;28;20040;-66
2021/01/29 10:31:43;;;;;;;4.03;2.08;;;19.30;43.90;;;;;;5049448;28;20054;-65
2021/01/29 10:34:31;;;;;;;2.78;1.90;;;19.30;43.90;;;;;;5049862;28;20038;-66
2021/01/29 10:37:07;;;;;;;3.13;2.22;;;19.30;43.90;;;;;;5049473;28;20028;-65
2021/01/29 10:39:51;;;;;;;2.38;1.63;;;19.30;43.90;;;;;;5049270;28;20775;-63
2021/01/29 10:42:18;;;;;;;3.28;2.00;;;19.30;44.00;;;;;;5049185;28;20104;-65
2021/01/29 10:44:43;;;;;;;2.45;1.90;;;19.30;43.90;;;;;;5049223;28;20020;-63
2021/01/29 10:47:28;;;;;;;3.10;2.22;;;19.40;44.00;;;;;;5066644;28;20078;-65
2021/01/29 10:50:17;;;;;;;2.13;1.63;;;19.30;43.90;;;;;;5050217;28;20027;-65
2021/01/29 10:52:58;;;;;;;2.10;1.90;;;19.30;44.00;;;;;;5049428;28;20024;-65
2021/01/29 10:55:27;;;;;;;2.83;2.10;;;19.30;44.00;;;;;;5049229;28;20028;-65
2021/01/29 10:58:23;;;;;;;4.45;2.22;;;19.30;44.00;;;;;;5066881;28;20062;-66
2021/01/29 11:00:56;;;;;;;2.15;1.83;;;19.30;44.00;;;;;;5049041;28;20017;-66
2021/01/29 11:03:55;;;;;;;2.97;2.03;;;19.30;44.00;;;;;;5048848;28;20104;-65
2021/01/29 11:06:24;;;;;;;3.35;2.08;;;19.30;44.10;;;;;;5049418;28;20020;-65
2021/01/29 11:08:58;;;;;;;2.80;1.80;;;19.30;44.00;;;;;;5049059;28;20425;-66
2021/01/29 11:11:29;;;;;;;3.45;1.80;;;19.30;44.10;;;;;;5048971;28;20071;-65
2021/01/29 11:14:15;;;;;;;2.67;1.60;;;19.30;44.10;;;;;;5048757;28;20021;-64
2021/01/29 11:16:59;;;;;;;2.85;1.70;;;19.30;44.10;;;;;;5048147;28;20024;-66
2021/01/29 11:19:31;;;;;;;2.78;1.85;;;19.20;44.00;;;;;;5050998;28;20025;-65
2021/01/29 11:22:21;;;;;;;2.25;1.90;;;19.30;44.10;;;;;;5048526;28;20013;-65
2021/01/29 11:25:01;;;;;;;2.22;1.60;;;19.20;44.00;;;;;;5051311;28;20032;-66
2021/01/29 11:27:31;;;;;;;2.72;1.90;;;19.20;44.10;;;;;;5066656;28;20029;-65
2021/01/29 11:30:34;;;;;;;2.17;1.92;;;19.20;44.10;;;;;;5048449;28;20247;-65
2021/01/29 11:33:08;;;;;;;2.92;1.80;;;19.20;44.20;;;;;;5031605;28;20036;-65
2021/01/29 11:35:43;;;;;;;3.13;2.00;;;19.20;44.20;;;;;;5048933;28;20028;-65
2021/01/29 11:38:41;;;;;;;2.87;1.73;;;19.20;44.20;;;;;;5066268;28;20104;-64
2021/01/29 11:41:36;;;;;;;2.63;1.95;;;19.20;44.20;;;;;;5048536;28;20251;-66
2021/01/29 11:44:10;;;;;;;2.25;1.95;;;19.20;44.20;;;;;;5048535;28;20036;-66
2021/01/29 11:46:57;;;;;;;2.60;2.03;;;19.20;44.20;;;;;;5047943;28;20115;-65
2021/01/29 11:49:26;;;;;;;3.33;2.63;;;19.20;44.20;;;;;;5048602;28;20027;-65
2021/01/29 11:51:51;;;;;;;2.70;1.80;;;19.20;44.20;;;;;;5048338;28;20044;-65
2021/01/29 11:54:35;;;;;;;2.40;2.03;;;19.20;44.20;;;;;;5048185;28;20033;-63
2021/01/29 11:57:22;;;;;;;2.50;1.95;;;19.20;44.20;;;;;;5047822;28;20220;-66
2021/01/29 11:59:49;;;;;;;2.83;2.15;;;19.20;44.20;;;;;;5065740;28;20059;-66
2021/01/29 12:02:38;;;;;;;2.47;1.60;;;19.20;44.20;;;;;;5066167;28;20394;-64
2021/01/29 12:05:30;;;;;;;1.70;1.58;;;19.20;44.20;;;;;;5048215;28;20024;-66
2021/01/29 12:08:25;;;;;;;2.05;1.58;;;19.20;44.20;;;;;;5048658;28;20078;-66
2021/01/29 12:10:51;;;;;;;3.40;2.13;;;19.20;44.20;;;;;;5051000;28;20094;-63
2021/01/29 12:13:39;;;;;;;2.55;1.90;;;19.20;44.20;;;;;;5066112;28;20063;-64
2021/01/29 12:16:10;;;;;;;3.60;1.90;;;19.20;44.20;;;;;;5047605;28;20020;-65
2021/01/29 12:18:36;;;;;;;2.05;1.80;;;19.20;44.20;;;;;;5048210;28;20124;-64
2021/01/29 12:21:09;;;;;;;1.95;1.70;;;19.20;44.20;;;;;;5051036;28;20082;-65
2021/01/29 12:23:48;;;;;;;3.00;2.05;;;19.20;44.20;;;;;;5052226;28;20159;-65
2021/01/29 12:26:21;;;;;;;3.22;1.67;;;19.20;44.20;;;;;;5052157;28;20116;-64
2021/01/29 12:29:11;;;;;;;3.25;1.65;;;19.20;44.20;;;;;;5052648;28;20027;-66
2021/01/29 12:31:43;;;;;;;3.10;1.92;;;19.20;44.20;;;;;;5052264;28;20090;-65
2021/01/29 12:34:31;;;;;;;2.25;1.77;;;19.20;44.20;;;;;;5051892;28;20051;-66
2021/01/29 12:37:15;;;;;;;1.67;1.42;;;19.20;44.20;;;;;;5051835;28;20086;-66
2021/01/29 12:39:46;;;;;;;2.17;1.77;;;19.20;44.20;;;;;;5051871;28;20035;-65
2021/01/29 12:42:17;;;;;;;2.60;1.58;;;19.20;44.90;;;;;;5051649;28;20511;-65
2021/01/29 12:44:58;;;;;;;3.67;1.52;;;19.20;44.30;;;;;;5052287;28;20738;-65
2021/01/29 12:47:44;;;;;;;2.53;1.73;;;19.20;44.20;;;;;;5051125;28;20103;-66
2021/01/29 12:50:58;;;;;;;3.22;1.77;;;19.20;44.20;;;;;;5051646;28;20021;-66
2021/01/29 12:53:46;;;;;;;3.17;1.50;;;19.20;44.20;;;;;;5055833;28;20119;-65
2021/01/29 12:56:33;;;;;;;2.05;1.50;;;19.20;44.20;;;;;;5069010;28;20046;-64
2021/01/29 12:59:01;;;;;;;2.75;2.00;;;19.20;44.20;;;;;;5068999;28;20048;-65
2021/01/29 13:01:33;;;;;;;2.35;1.58;;;19.20;44.20;;;;;;5051607;28;20019;-66
2021/01/29 13:04:09;;;;;;;2.75;1.50;;;19.20;44.20;;;;;;5069474;28;20029;-65
2021/01/29 13:06:52;;;;;;;2.03;1.67;;;19.20;44.20;;;;;;5069117;28;20024;-63
2021/01/29 13:09:27;;;;;;;2.88;1.50;;;19.20;44.30;;;;;;5053575;28;20028;-63
2021/01/29 13:12:05;;;;;;;3.08;1.50;;;19.20;44.30;;;;;;5069225;28;20394;-65
2021/01/29 13:14:36;;;;;;;1.90;1.48;;;19.20;44.30;;;;;;5051951;28;20552;-65
2021/01/29 13:17:08;;;;;;;1.60;1.40;;;19.20;44.20;;;;;;5051512;28;20076;-66
2021/01/29 13:19:39;;;;;;;1.92;1.50;;;19.20;44.30;;;;;;5069043;28;20021;-66
2021/01/29 13:22:35;;;;;;;1.95;1.40;;;19.20;44.30;;;;;;5052028;28;20545;-66
2021/01/29 13:25:09;;;;;;;2.20;1.92;;;19.20;44.30;;;;;;5051188;28;20044;-65
2021/01/29 13:27:56;;;;;;;1.60;1.25;;;19.20;44.20;;;;;;5068781;28;20024;-65
2021/01/29 13:30:28;;;;;;;1.58;1.10;;;19.20;44.30;;;;;;5046449;28;20033;-65
2021/01/29 13:32:54;;;;;;;1.63;1.30;;;19.20;44.30;;;;;;5068734;28;20510;-66
2021/01/29 13:35:26;;;;;;;3.80;1.77;;;19.20;44.40;;;;;;5050926;28;20075;-65
2021/01/29 13:37:52;;;;;;;2.17;1.58;;;19.10;44.40;;;;;;5050702;28;20036;-65
2021/01/29 13:40:27;;;;;;;2.17;1.85;;;19.10;44.40;;;;;;5068477;28;20054;-65
2021/01/29 13:42:54;;;;;;;2.15;1.77;;;19.10;44.40;;;;;;5050251;28;20054;-66
2021/01/29 13:45:31;;;;;;;2.88;1.60;;;19.10;44.50;;;;;;5050191;28;20028;-65
2021/01/29 13:48:00;;;;;;;1.70;1.60;;;19.10;44.50;;;;;;5050872;28;20020;-63